createdAt,value
2023-09-11T00:00:15.781Z,99.90
2023-09-11T00:02:42.785Z,99.90
2023-09-11T00:05:09.758Z,99.90
2023-09-11T00:07:37.366Z,99.90
2023-09-11T00:10:04.420Z,99.90
2023-09-11T00:12:31.239Z,99.90
2023-09-11T00:14:57.971Z,99.90
2023-09-11T00:17:25.039Z,99.90
2023-09-11T00:19:51.958Z,99.90
2023-09-11T00:22:18.657Z,99.90
2023-09-11T00:24:45.394Z,99.90
2023-09-11T00:27:12.215Z,99.90
2023-09-11T00:29:39.144Z,99.90
2023-09-11T00:32:06.251Z,99.90
2023-09-11T00:34:32.970Z,99.90
2023-09-11T00:37:00.078Z,99.90
2023-09-11T00:39:27.227Z,99.90
2023-09-11T00:41:54.064Z,99.90
2023-09-11T00:44:20.968Z,99.90
2023-09-11T00:46:47.815Z,99.90
2023-09-11T00:49:14.850Z,99.90
2023-09-11T00:51:41.757Z,99.90
2023-09-11T00:54:09.384Z,99.90
2023-09-11T00:56:36.439Z,99.90
2023-09-11T00:59:04.515Z,99.90
2023-09-11T01:01:32.644Z,99.90
2023-09-11T01:03:59.898Z,99.90
2023-09-11T01:06:26.708Z,99.90
2023-09-11T01:08:56.224Z,99.90
2023-09-11T01:11:23.554Z,99.90
2023-09-11T01:13:50.405Z,99.90
2023-09-11T01:16:19.878Z,99.90
2023-09-11T01:18:59.848Z,99.90
2023-09-11T01:21:26.770Z,99.90
2023-09-11T01:24:14.416Z,99.90
2023-09-11T01:27:13.407Z,99.90
2023-09-11T01:29:43.320Z,99.90
2023-09-11T01:32:12.159Z,99.90
2023-09-11T01:34:38.952Z,99.90
2023-09-11T01:37:05.722Z,99.90
2023-09-11T01:39:32.534Z,99.90
2023-09-11T01:42:10.400Z,99.90
2023-09-11T01:44:48.710Z,99.90
2023-09-11T01:47:21.783Z,99.90
2023-09-11T01:49:49.658Z,99.90
2023-09-11T01:52:17.759Z,99.90
2023-09-11T01:54:45.033Z,99.90
2023-09-11T01:57:11.799Z,99.90
2023-09-11T01:59:38.661Z,99.90
2023-09-11T02:02:05.485Z,99.90
2023-09-11T02:04:32.412Z,99.90
2023-09-11T02:06:59.123Z,99.90
2023-09-11T02:09:25.821Z,99.90
2023-09-11T02:11:52.566Z,99.90
2023-09-11T02:14:19.731Z,99.90
2023-09-11T02:16:46.570Z,99.90
2023-09-11T02:19:13.490Z,99.90
2023-09-11T02:21:40.209Z,99.90
2023-09-11T02:24:07.164Z,99.90
2023-09-11T02:26:33.941Z,99.90
2023-09-11T02:29:01.060Z,99.90
2023-09-11T02:31:28.232Z,99.90
2023-09-11T02:33:55.250Z,99.90
2023-09-11T02:36:22.056Z,99.90
2023-09-11T02:38:48.927Z,99.90
2023-09-11T02:41:15.670Z,99.90
2023-09-11T02:43:42.352Z,99.90
2023-09-11T02:46:09.459Z,99.90
2023-09-11T02:48:47.934Z,99.90
2023-09-11T02:51:16.144Z,99.90
2023-09-11T02:53:42.884Z,99.90
2023-09-11T02:56:09.746Z,99.90
2023-09-11T02:58:36.553Z,99.90
2023-09-11T03:01:05.219Z,99.90
2023-09-11T03:03:32.655Z,99.90
2023-09-11T03:06:02.014Z,99.90
2023-09-11T03:08:29.305Z,99.90
2023-09-11T03:11:07.936Z,99.90
2023-09-11T03:13:34.759Z,99.90
2023-09-11T03:16:15.593Z,99.90
2023-09-11T03:18:42.924Z,99.90
2023-09-11T03:21:10.290Z,99.90
2023-09-11T03:23:37.230Z,99.90
2023-09-11T03:26:04.181Z,99.90
2023-09-11T03:28:32.102Z,99.90
2023-09-11T03:31:04.040Z,99.90
2023-09-11T03:33:31.497Z,99.90
2023-09-11T03:36:00.160Z,99.90
2023-09-11T03:38:27.079Z,99.90
2023-09-11T03:40:53.940Z,99.90
2023-09-11T03:43:20.642Z,99.90
2023-09-11T03:45:48.452Z,99.90
2023-09-11T03:48:16.902Z,99.90
2023-09-11T03:50:43.984Z,99.90
2023-09-11T03:53:10.765Z,99.90
2023-09-11T03:55:37.621Z,99.90
2023-09-11T03:58:04.566Z,99.90
2023-09-11T04:00:31.330Z,99.90
2023-09-11T04:02:58.196Z,99.90
2023-09-11T04:05:24.930Z,99.90
2023-09-11T04:07:51.700Z,99.90
2023-09-11T04:10:18.531Z,99.90
2023-09-11T04:12:45.200Z,99.90
2023-09-11T04:15:11.993Z,99.90
2023-09-11T04:17:38.751Z,99.90
2023-09-11T04:20:06.782Z,99.90
2023-09-11T04:22:33.704Z,99.90
2023-09-11T04:25:00.571Z,99.90
2023-09-11T04:27:27.394Z,99.90
2023-09-11T04:29:54.116Z,99.90
2023-09-11T04:32:22.314Z,99.90
2023-09-11T04:34:49.163Z,99.90
2023-09-11T04:37:17.690Z,99.90
2023-09-11T04:39:44.528Z,99.90
2023-09-11T04:42:11.248Z,99.90
2023-09-11T04:44:38.049Z,99.90
2023-09-11T04:47:04.903Z,99.90
2023-09-11T04:49:31.632Z,99.90
2023-09-11T04:51:58.319Z,99.90
2023-09-11T04:54:25.078Z,99.90
2023-09-11T04:56:51.908Z,99.90
2023-09-11T04:59:18.641Z,99.90
2023-09-11T05:01:45.560Z,99.90
2023-09-11T05:04:12.403Z,99.90
2023-09-11T05:06:39.135Z,99.90
2023-09-11T05:09:11.542Z,99.90
2023-09-11T05:11:39.662Z,99.90
2023-09-11T05:14:06.616Z,99.90
2023-09-11T05:16:33.622Z,99.90
2023-09-11T05:19:00.526Z,99.90
2023-09-11T05:21:27.439Z,99.90
2023-09-11T05:23:54.190Z,99.90
2023-09-11T05:26:21.548Z,99.90
2023-09-11T05:28:48.225Z,99.90
2023-09-11T05:31:15.186Z,99.90
2023-09-11T05:33:42.096Z,99.90
2023-09-11T05:36:08.981Z,99.90
2023-09-11T05:38:35.715Z,99.90
2023-09-11T05:41:02.618Z,99.90
2023-09-11T05:43:29.655Z,99.90
2023-09-11T05:45:57.134Z,99.90
2023-09-11T05:48:26.617Z,99.90
2023-09-11T05:50:54.207Z,99.90
2023-09-11T05:53:21.318Z,99.90
2023-09-11T05:55:48.773Z,99.90
2023-09-11T05:58:15.885Z,99.90
2023-09-11T06:00:43.540Z,99.90
2023-09-11T06:03:10.688Z,99.90
2023-09-11T06:05:40.874Z,99.90
2023-09-11T06:08:09.005Z,99.90
2023-09-11T06:10:35.869Z,99.90
2023-09-11T06:13:03.070Z,99.90
2023-09-11T06:15:30.802Z,99.90
2023-09-11T06:17:57.651Z,99.90
2023-09-11T06:20:24.735Z,99.90
2023-09-11T06:22:52.415Z,99.90
2023-09-11T06:25:19.426Z,99.90
2023-09-11T06:27:46.247Z,99.90
2023-09-11T06:30:13.292Z,99.90
2023-09-11T06:32:40.636Z,99.90
2023-09-11T06:35:07.966Z,99.90
2023-09-11T06:37:34.836Z,99.90
2023-09-11T06:40:09.003Z,99.90
2023-09-11T06:42:36.562Z,99.90
2023-09-11T06:45:04.412Z,99.90
2023-09-11T06:47:31.531Z,99.90
2023-09-11T06:49:58.397Z,99.90
2023-09-11T06:52:25.327Z,99.90
2023-09-11T06:54:52.358Z,99.90
2023-09-11T06:57:19.282Z,99.90
2023-09-11T06:59:46.399Z,99.90
2023-09-11T07:02:13.358Z,99.90
2023-09-11T07:04:40.282Z,99.90
2023-09-11T07:07:07.240Z,99.90
2023-09-11T07:09:34.367Z,99.90
2023-09-11T07:12:01.472Z,99.90
2023-09-11T07:14:28.602Z,99.90
2023-09-11T07:16:56.370Z,99.90
2023-09-11T07:19:23.750Z,99.90
2023-09-11T07:21:50.803Z,99.90
2023-09-11T07:24:17.988Z,99.90
2023-09-11T07:26:44.825Z,99.90
2023-09-11T07:29:11.651Z,99.90
2023-09-11T07:31:39.660Z,99.90
2023-09-11T07:34:06.880Z,99.90
2023-09-11T07:36:34.002Z,99.90
2023-09-11T07:39:00.993Z,99.90
2023-09-11T07:41:29.368Z,99.90
2023-09-11T07:43:56.211Z,99.90
2023-09-11T07:46:27.311Z,99.90
2023-09-11T07:48:57.102Z,99.90
2023-09-11T07:51:27.153Z,99.90
2023-09-11T07:53:54.325Z,99.90
2023-09-11T07:56:21.751Z,99.90
2023-09-11T07:58:51.537Z,99.90
2023-09-11T08:01:26.964Z,99.90
2023-09-11T08:03:54.227Z,99.90
2023-09-11T08:06:21.333Z,99.90
2023-09-11T08:08:48.176Z,99.90
2023-09-11T08:11:17.172Z,99.90
2023-09-11T08:13:44.625Z,99.90
2023-09-11T08:16:11.386Z,99.90
2023-09-11T08:18:38.419Z,99.90
2023-09-11T08:21:05.825Z,99.90
2023-09-11T08:23:32.733Z,99.90
2023-09-11T08:26:03.049Z,99.90
2023-09-11T08:28:30.231Z,99.90
2023-09-11T08:30:57.849Z,99.90
2023-09-11T08:33:28.204Z,99.90
2023-09-11T08:35:59.028Z,99.90
2023-09-11T08:38:26.148Z,99.90
2023-09-11T08:40:53.142Z,99.90
2023-09-11T08:43:25.342Z,99.90
2023-09-11T08:45:53.874Z,99.90
2023-09-11T08:48:25.181Z,99.90
2023-09-11T08:50:56.633Z,99.90
2023-09-11T08:53:26.032Z,99.90
2023-09-11T08:55:55.241Z,99.90
2023-09-11T08:58:24.767Z,99.90
2023-09-11T09:00:51.831Z,99.90
2023-09-11T09:03:20.892Z,99.90
2023-09-11T09:05:47.972Z,99.90
2023-09-11T09:08:16.141Z,99.90
2023-09-11T09:10:44.454Z,99.90
2023-09-11T09:13:12.431Z,99.90
2023-09-11T09:15:42.111Z,99.90
2023-09-11T09:18:09.763Z,99.90
2023-09-11T09:20:38.398Z,99.90
2023-09-11T09:23:08.318Z,99.90
2023-09-11T09:25:35.032Z,99.90
2023-09-11T09:28:02.446Z,99.90
2023-09-11T09:30:31.633Z,99.90
2023-09-11T09:33:00.167Z,99.90
2023-09-11T09:35:31.445Z,99.90
2023-09-11T09:38:01.853Z,99.90
2023-09-11T09:40:38.641Z,99.90
2023-09-11T09:43:07.282Z,99.90
2023-09-11T09:45:40.151Z,99.90
2023-09-11T09:48:17.609Z,99.90
2023-09-11T09:50:48.232Z,99.90
2023-09-11T09:53:26.575Z,99.90
2023-09-11T09:55:55.001Z,99.90
2023-09-11T09:58:32.227Z,99.90
2023-09-11T10:01:01.554Z,99.90
2023-09-11T10:03:30.029Z,99.90
2023-09-11T10:05:57.329Z,99.90
2023-09-11T10:08:24.133Z,99.90
2023-09-11T10:10:50.989Z,99.90
2023-09-11T10:13:17.898Z,99.90
2023-09-11T10:15:46.031Z,99.90
2023-09-11T10:18:14.508Z,99.90
2023-09-11T10:20:41.785Z,99.90
2023-09-11T10:23:09.887Z,99.90
2023-09-11T10:25:44.959Z,99.90
2023-09-11T10:28:36.438Z,99.90
2023-09-11T10:31:15.505Z,99.90
2023-09-11T10:33:56.074Z,99.90
2023-09-11T10:36:24.451Z,99.90
2023-09-11T10:38:55.398Z,99.90
2023-09-11T10:41:22.719Z,99.90
2023-09-11T10:43:50.019Z,99.70
2023-09-11T10:46:21.440Z,99.80
2023-09-11T10:48:48.748Z,99.90
2023-09-11T10:51:16.359Z,99.50
2023-09-11T10:53:43.946Z,99.10
2023-09-11T10:56:11.817Z,98.80
2023-09-11T10:58:39.707Z,98.50
2023-09-11T11:01:09.724Z,98.10
2023-09-11T11:03:37.026Z,98.60
2023-09-11T11:06:05.668Z,98.00
2023-09-11T11:08:34.528Z,97.80
2023-09-11T11:11:03.090Z,97.50
2023-09-11T11:13:30.601Z,97.50
2023-09-11T11:16:16.345Z,96.10
2023-09-11T11:18:43.940Z,97.20
2023-09-11T11:21:11.299Z,96.90
2023-09-11T11:24:01.716Z,96.30
2023-09-11T11:26:31.495Z,95.80
2023-09-11T11:28:59.434Z,95.20
2023-09-11T11:31:28.984Z,95.10
2023-09-11T11:33:59.270Z,94.70
2023-09-11T11:36:27.711Z,95.40
2023-09-11T11:38:57.949Z,95.50
2023-09-11T11:41:25.442Z,95.50
2023-09-11T11:43:52.614Z,95.40
2023-09-11T11:46:22.953Z,95.40
2023-09-11T11:48:49.814Z,95.20
2023-09-11T11:51:27.037Z,94.50
2023-09-11T11:53:53.769Z,94.60
2023-09-11T11:56:20.809Z,94.90
2023-09-11T11:58:47.546Z,95.00
2023-09-11T12:01:14.221Z,93.60
2023-09-11T12:03:48.813Z,94.10
2023-09-11T12:06:16.583Z,93.10
2023-09-11T12:08:45.722Z,93.50
2023-09-11T12:11:12.516Z,93.20
2023-09-11T12:13:48.786Z,93.80
2023-09-11T12:16:16.444Z,93.30
2023-09-11T12:18:43.544Z,93.10
2023-09-11T12:21:11.228Z,93.10
2023-09-11T12:23:38.047Z,92.70
2023-09-11T12:26:05.581Z,93.20
2023-09-11T12:28:33.802Z,93.10
2023-09-11T12:31:00.842Z,93.00
2023-09-11T12:33:29.559Z,93.20
2023-09-11T12:35:57.247Z,93.40
2023-09-11T12:38:24.731Z,93.30
2023-09-11T12:40:54.759Z,93.50
2023-09-11T12:43:23.587Z,93.30
2023-09-11T12:45:51.367Z,93.30
2023-09-11T12:48:18.981Z,93.30
2023-09-11T12:50:46.227Z,93.10
2023-09-11T12:53:13.055Z,92.90
2023-09-11T12:55:40.015Z,93.10
2023-09-11T12:58:09.024Z,93.60
2023-09-11T13:00:36.330Z,93.40
2023-09-11T13:03:05.056Z,93.30
2023-09-11T13:05:32.222Z,93.20
2023-09-11T13:08:00.214Z,93.60
2023-09-11T13:10:27.439Z,93.70
2023-09-11T13:12:54.205Z,92.90
2023-09-11T13:15:21.461Z,92.90
2023-09-11T13:17:48.708Z,92.50
2023-09-11T13:20:15.719Z,92.50
2023-09-11T13:22:43.546Z,92.60
2023-09-11T13:25:13.593Z,92.00
2023-09-11T13:27:43.606Z,92.00
2023-09-11T13:30:11.104Z,92.10
2023-09-11T13:32:39.200Z,92.60
2023-09-11T13:35:07.284Z,92.20
2023-09-11T13:37:34.572Z,92.00
2023-09-11T13:40:01.388Z,92.30
2023-09-11T13:42:28.142Z,92.50
2023-09-11T13:44:57.693Z,92.20
2023-09-11T13:47:26.031Z,92.10
2023-09-11T13:49:53.259Z,92.30
2023-09-11T13:52:20.369Z,92.50
2023-09-11T13:54:47.680Z,92.80
2023-09-11T13:57:15.292Z,92.60
2023-09-11T13:59:42.186Z,92.70
2023-09-11T14:02:09.052Z,92.70
2023-09-11T14:04:36.207Z,92.10
2023-09-11T14:07:04.412Z,92.30
2023-09-11T14:09:31.764Z,92.60
2023-09-11T14:11:59.465Z,92.10
2023-09-11T14:14:26.382Z,92.10
2023-09-11T14:16:53.503Z,92.00
2023-09-11T14:19:20.231Z,92.50
2023-09-11T14:21:47.105Z,92.30
2023-09-11T14:24:13.916Z,92.00
2023-09-11T14:26:40.782Z,92.30
2023-09-11T14:29:07.669Z,92.40
2023-09-11T14:31:34.561Z,92.60
2023-09-11T14:34:01.465Z,92.10
2023-09-11T14:36:28.414Z,91.90
2023-09-11T14:38:56.415Z,92.20
2023-09-11T14:41:23.278Z,92.10
2023-09-11T14:43:50.075Z,92.30
2023-09-11T14:46:16.818Z,92.00
2023-09-11T14:48:43.947Z,92.00
2023-09-11T14:51:11.126Z,92.00
2023-09-11T14:53:42.138Z,92.00
2023-09-11T14:56:09.180Z,92.00
2023-09-11T14:58:35.935Z,91.80
2023-09-11T15:01:02.809Z,91.90
2023-09-11T15:03:29.872Z,91.60
2023-09-11T15:05:57.910Z,91.80
2023-09-11T15:08:25.016Z,92.00
2023-09-11T15:10:59.446Z,91.90
2023-09-11T15:13:28.191Z,92.30
2023-09-11T15:15:55.761Z,92.00
2023-09-11T15:18:22.913Z,92.00
2023-09-11T15:20:49.789Z,91.90
2023-09-11T15:23:16.501Z,92.20
2023-09-11T15:25:44.204Z,92.00
2023-09-11T15:28:11.452Z,91.90
2023-09-11T15:30:38.891Z,92.20
2023-09-11T15:33:13.322Z,92.20
2023-09-11T15:36:00.891Z,92.00
2023-09-11T15:38:27.638Z,92.10
2023-09-11T15:40:57.312Z,92.20
2023-09-11T15:43:25.069Z,92.10
2023-09-11T15:45:53.413Z,92.10
2023-09-11T15:48:20.337Z,92.10
2023-09-11T15:50:51.658Z,92.40
2023-09-11T15:53:20.856Z,92.20
2023-09-11T15:55:50.893Z,92.20
2023-09-11T15:58:18.202Z,92.40
2023-09-11T16:00:45.105Z,92.30
2023-09-11T16:03:11.987Z,92.30
2023-09-11T16:05:40.448Z,92.20
2023-09-11T16:08:07.142Z,92.40
2023-09-11T16:10:33.864Z,92.50
2023-09-11T16:13:02.971Z,92.30
2023-09-11T16:15:31.254Z,92.30
2023-09-11T16:17:58.511Z,92.50
2023-09-11T16:20:28.315Z,92.70
2023-09-11T16:22:55.657Z,92.60
2023-09-11T16:25:22.425Z,92.60
2023-09-11T16:27:49.147Z,92.70
2023-09-11T16:30:16.668Z,92.70
2023-09-11T16:32:44.070Z,93.10
2023-09-11T16:35:13.980Z,92.90
2023-09-11T16:37:40.797Z,92.90
2023-09-11T16:40:08.571Z,93.00
2023-09-11T16:42:43.465Z,93.00
2023-09-11T16:45:12.344Z,93.10
2023-09-11T16:47:40.169Z,93.50
2023-09-11T16:50:09.403Z,93.40
2023-09-11T16:52:36.333Z,93.20
2023-09-11T16:55:04.500Z,93.50
2023-09-11T16:57:31.331Z,93.80
2023-09-11T17:00:01.789Z,93.50
2023-09-11T17:02:28.665Z,93.70
2023-09-11T17:04:55.596Z,93.70
2023-09-11T17:07:22.544Z,93.80
2023-09-11T17:09:49.323Z,93.80
2023-09-11T17:12:16.172Z,94.20
2023-09-11T17:14:43.125Z,94.10
2023-09-11T17:17:09.962Z,94.40
2023-09-11T17:19:36.939Z,95.40
2023-09-11T17:22:03.639Z,95.00
2023-09-11T17:24:31.149Z,95.00
2023-09-11T17:26:58.093Z,95.10
2023-09-11T17:29:28.578Z,95.20
2023-09-11T17:31:55.704Z,95.00
2023-09-11T17:34:24.407Z,95.20
2023-09-11T17:36:52.056Z,95.50
2023-09-11T17:39:21.146Z,96.20
2023-09-11T17:41:47.968Z,97.40
2023-09-11T17:44:14.845Z,97.60
2023-09-11T17:46:41.742Z,98.10
2023-09-11T17:49:08.530Z,98.70
2023-09-11T17:51:35.567Z,98.60
2023-09-11T17:54:02.697Z,98.50
2023-09-11T17:56:29.481Z,98.80
2023-09-11T17:58:56.552Z,99.10
2023-09-11T18:01:23.401Z,99.50
2023-09-11T18:03:57.406Z,99.90
2023-09-11T18:06:27.354Z,99.90
2023-09-11T18:08:55.034Z,99.90
2023-09-11T18:11:21.968Z,99.90
2023-09-11T18:13:51.357Z,99.90
2023-09-11T18:16:22.930Z,99.90
2023-09-11T18:18:49.828Z,99.90
2023-09-11T18:21:19.387Z,99.90
2023-09-11T18:23:46.309Z,99.90
2023-09-11T18:26:17.842Z,99.90
2023-09-11T18:28:44.927Z,99.90
2023-09-11T18:31:12.419Z,99.90
2023-09-11T18:33:39.739Z,99.90
2023-09-11T18:36:15.172Z,99.90
2023-09-11T18:38:45.222Z,99.90
2023-09-11T18:41:13.183Z,99.90
2023-09-11T18:43:40.242Z,99.90
2023-09-11T18:46:06.979Z,99.90
2023-09-11T18:48:34.181Z,99.90
2023-09-11T18:51:01.068Z,99.90
2023-09-11T18:53:28.402Z,99.90
2023-09-11T18:55:57.173Z,99.90
2023-09-11T18:58:23.910Z,99.90
2023-09-11T19:00:50.649Z,99.90
2023-09-11T19:03:17.600Z,99.90
2023-09-11T19:05:44.496Z,99.90
2023-09-11T19:08:13.789Z,99.90
2023-09-11T19:10:40.957Z,99.90
2023-09-11T19:13:07.624Z,99.90
2023-09-11T19:15:34.400Z,99.90
2023-09-11T19:18:01.936Z,99.90
2023-09-11T19:20:28.735Z,99.90
2023-09-11T19:22:55.512Z,99.90
2023-09-11T19:25:22.156Z,99.90
2023-09-11T19:27:48.951Z,99.90
2023-09-11T19:30:15.876Z,99.90
2023-09-11T19:32:42.773Z,99.90
2023-09-11T19:35:09.986Z,99.90
2023-09-11T19:37:36.768Z,99.90
2023-09-11T19:40:04.437Z,99.90
2023-09-11T19:42:32.320Z,99.90
2023-09-11T19:44:59.260Z,99.90
2023-09-11T19:47:28.016Z,99.90
2023-09-11T19:49:55.219Z,99.90
2023-09-11T19:52:21.979Z,99.90
2023-09-11T19:54:48.763Z,99.90
2023-09-11T19:57:16.386Z,99.90
2023-09-11T19:59:43.174Z,99.90
2023-09-11T20:02:10.132Z,99.90
2023-09-11T20:04:36.942Z,99.90
2023-09-11T20:07:03.991Z,99.90
2023-09-11T20:09:30.737Z,99.90
2023-09-11T20:11:57.687Z,99.90
2023-09-11T20:14:24.572Z,99.90
2023-09-11T20:16:51.815Z,99.90
2023-09-11T20:19:19.147Z,99.90
2023-09-11T20:21:46.010Z,99.90
2023-09-11T20:24:13.900Z,99.90
2023-09-11T20:26:40.668Z,99.90
2023-09-11T20:29:07.602Z,99.90
2023-09-11T20:31:34.538Z,99.90
2023-09-11T20:34:01.419Z,99.90
2023-09-11T20:36:30.048Z,99.90
2023-09-11T20:38:56.807Z,99.90
2023-09-11T20:41:23.584Z,99.90
2023-09-11T20:43:50.318Z,99.90
2023-09-11T20:46:17.090Z,99.90
2023-09-11T20:48:44.070Z,99.90
2023-09-11T20:51:12.439Z,99.90
2023-09-11T20:53:39.300Z,99.90
2023-09-11T20:56:07.547Z,99.90
2023-09-11T20:58:34.983Z,99.90
2023-09-11T21:01:05.850Z,99.90
2023-09-11T21:03:33.778Z,99.90
2023-09-11T21:06:00.945Z,99.90
2023-09-11T21:08:28.261Z,99.90
2023-09-11T21:10:55.363Z,99.90
2023-09-11T21:13:26.022Z,99.90
2023-09-11T21:15:52.786Z,99.90
2023-09-11T21:18:20.226Z,99.90
2023-09-11T21:20:47.267Z,99.90
2023-09-11T21:23:14.003Z,99.90
2023-09-11T21:25:40.649Z,99.90
2023-09-11T21:28:07.515Z,99.90
2023-09-11T21:30:35.173Z,99.90
2023-09-11T21:33:02.093Z,99.90
2023-09-11T21:35:29.790Z,99.90
2023-09-11T21:37:56.643Z,99.90
2023-09-11T21:40:23.334Z,99.90
2023-09-11T21:42:50.094Z,99.90
2023-09-11T21:45:17.029Z,99.90
2023-09-11T21:47:43.879Z,99.90
2023-09-11T21:50:10.677Z,99.90
2023-09-11T21:52:37.324Z,99.90
2023-09-11T21:55:04.959Z,99.90
2023-09-11T21:57:31.922Z,99.90
2023-09-11T21:59:58.750Z,99.90
2023-09-11T22:02:25.608Z,99.90
2023-09-11T22:04:52.492Z,99.90
2023-09-11T22:07:19.193Z,99.90
2023-09-11T22:09:45.900Z,99.90
2023-09-11T22:12:13.212Z,99.90
2023-09-11T22:14:40.331Z,99.90
2023-09-11T22:17:08.660Z,99.90
2023-09-11T22:19:36.401Z,99.90
2023-09-11T22:22:03.362Z,99.90
2023-09-11T22:24:30.148Z,99.90
2023-09-11T22:27:00.806Z,99.90
2023-09-11T22:29:33.175Z,99.90
2023-09-11T22:31:59.948Z,99.90
2023-09-11T22:34:26.805Z,99.90
2023-09-11T22:36:53.843Z,99.90
2023-09-11T22:39:20.657Z,99.90
2023-09-11T22:41:47.338Z,99.90
2023-09-11T22:44:14.068Z,99.90
2023-09-11T22:46:40.817Z,99.90
2023-09-11T22:49:07.593Z,99.90
2023-09-11T22:51:34.701Z,99.90
2023-09-11T22:54:01.471Z,99.90
2023-09-11T22:56:28.305Z,99.90
2023-09-11T22:58:55.029Z,99.90
2023-09-11T23:01:28.239Z,99.90
2023-09-11T23:03:56.165Z,99.90
2023-09-11T23:06:23.109Z,99.90
2023-09-11T23:08:49.894Z,99.90
2023-09-11T23:11:16.634Z,99.90
2023-09-11T23:13:43.716Z,99.90
2023-09-11T23:16:10.516Z,99.90
2023-09-11T23:18:37.374Z,99.90
2023-09-11T23:21:04.200Z,99.90
2023-09-11T23:23:40.358Z,99.90
2023-09-11T23:26:07.987Z,99.90
2023-09-11T23:28:34.863Z,99.90
2023-09-11T23:31:01.670Z,99.90
2023-09-11T23:33:28.668Z,99.90
2023-09-11T23:35:55.738Z,99.90
2023-09-11T23:38:22.529Z,99.90
2023-09-11T23:40:49.180Z,99.90
2023-09-11T23:43:15.866Z,99.90
2023-09-11T23:45:42.672Z,99.90
2023-09-11T23:48:09.887Z,99.90
2023-09-11T23:50:36.683Z,99.90
2023-09-11T23:53:03.836Z,99.90
2023-09-11T23:55:30.500Z,99.90
2023-09-11T23:57:57.255Z,99.90
